sensor_id;sensor_type;location;lat;lon;timestamp;pressure;altitude;pressure_sealevel;temperature;humidity
24486;BME280;13449;49.374;8.584;2022-12-07T00:01:30;100758.34;;;2.51;100.00
24486;BME280;13449;49.374;8.584;2022-12-07T00:03:58;100756.84;;;2.58;100.00
24486;BME280;13449;49.374;8.584;2022-12-07T00:06:33;100753.03;;;2.60;100.00
24486;BME280;13449;49.374;8.584;2022-12-07T00:09:04;100754.47;;;2.64;100.00
24486;BME280;13449;49.374;8.584;2022-12-07T00:11:32;100743.72;;;2.64;100.00
24486;BME280;13449;49.374;8.584;2022-12-07T00:14:01;100739.78;;;2.68;100.00
24486;BME280;13449;49.374;8.584;2022-12-07T00:16:29;100750.53;;;2.68;100.00
24486;BME280;13449;49.374;8.584;2022-12-07T00:18:57;100740.97;;;2.75;100.00
24486;BME280;13449;49.374;8.584;2022-12-07T00:21:26;100732.03;;;2.75;100.00
24486;BME280;13449;49.374;8.584;2022-12-07T00:23:54;100724.53;;;2.78;100.00
24486;BME280;13449;49.374;8.584;2022-12-07T00:26:29;100729.66;;;2.81;100.00
24486;BME280;13449;49.374;8.584;2022-12-07T00:28:58;100718.88;;;2.81;100.00
24486;BME280;13449;49.374;8.584;2022-12-07T00:31:28;100711.41;;;2.85;100.00
24486;BME280;13449;49.374;8.584;2022-12-07T00:33:57;100710.69;;;2.83;100.00
24486;BME280;13449;49.374;8.584;2022-12-07T00:36:24;100720.94;;;2.89;100.00
24486;BME280;13449;49.374;8.584;2022-12-07T00:38:53;100727.38;;;2.98;100.00
24486;BME280;13449;49.374;8.584;2022-12-07T00:41:23;100733.50;;;3.00;100.00
24486;BME280;13449;49.374;8.584;2022-12-07T00:43:50;100718.97;;;2.91;100.00
24486;BME280;13449;49.374;8.584;2022-12-07T00:46:18;100723.22;;;2.93;100.00
24486;BME280;13449;49.374;8.584;2022-12-07T00:48:46;100711.47;;;2.95;100.00
24486;BME280;13449;49.374;8.584;2022-12-07T00:51:17;100709.91;;;2.92;100.00
24486;BME280;13449;49.374;8.584;2022-12-07T00:53:45;100707.66;;;2.97;100.00
24486;BME280;13449;49.374;8.584;2022-12-07T00:56:14;100703.88;;;3.00;100.00
24486;BME280;13449;49.374;8.584;2022-12-07T00:58:41;100702.00;;;3.00;100.00
24486;BME280;13449;49.374;8.584;2022-12-07T01:01:09;100708.53;;;2.98;100.00
24486;BME280;13449;49.374;8.584;2022-12-07T01:03:36;100717.72;;;2.95;100.00
24486;BME280;13449;49.374;8.584;2022-12-07T01:06:04;100727.84;;;3.03;100.00
24486;BME280;13449;49.374;8.584;2022-12-07T01:08:31;100724.19;;;3.04;100.00
24486;BME280;13449;49.374;8.584;2022-12-07T01:11:05;100729.56;;;3.04;100.00
24486;BME280;13449;49.374;8.584;2022-12-07T01:13:33;100721.72;;;3.01;100.00
24486;BME280;13449;49.374;8.584;2022-12-07T01:16:04;100725.16;;;3.03;100.00
24486;BME280;13449;49.374;8.584;2022-12-07T01:18:33;100725.28;;;3.01;100.00
24486;BME280;13449;49.374;8.584;2022-12-07T01:23:28;100716.81;;;3.06;100.00
24486;BME280;13449;49.374;8.584;2022-12-07T01:25:59;100733.22;;;3.03;100.00
24486;BME280;13449;49.374;8.584;2022-12-07T01:28:29;100733.94;;;3.05;100.00
24486;BME280;13449;49.374;8.584;2022-12-07T01:31:17;100734.94;;;3.04;100.00
24486;BME280;13449;49.374;8.584;2022-12-07T01:33:49;100730.66;;;3.01;100.00
24486;BME280;13449;49.374;8.584;2022-12-07T01:36:24;100724.41;;;3.01;100.00
24486;BME280;13449;49.374;8.584;2022-12-07T01:38:54;100730.94;;;2.98;100.00
24486;BME280;13449;49.374;8.584;2022-12-07T01:41:24;100734.47;;;2.99;100.00
24486;BME280;13449;49.374;8.584;2022-12-07T01:44:17;100724.69;;;2.98;100.00
24486;BME280;13449;49.374;8.584;2022-12-07T01:46:55;100713.41;;;3.04;100.00
24486;BME280;13449;49.374;8.584;2022-12-07T01:54:33;100706.03;;;3.06;100.00
24486;BME280;13449;49.374;8.584;2022-12-07T01:57:00;100704.31;;;3.05;100.00
24486;BME280;13449;49.374;8.584;2022-12-07T01:59:29;100691.13;;;3.02;100.00
24486;BME280;13449;49.374;8.584;2022-12-07T02:01:55;100697.47;;;3.01;100.00
24486;BME280;13449;49.374;8.584;2022-12-07T02:04:25;100701.03;;;3.01;100.00
24486;BME280;13449;49.374;8.584;2022-12-07T02:06:51;100707.41;;;3.00;100.00
24486;BME280;13449;49.374;8.584;2022-12-07T02:09:19;100717.59;;;2.97;100.00
24486;BME280;13449;49.374;8.584;2022-12-07T02:11:48;100716.59;;;2.98;100.00
24486;BME280;13449;49.374;8.584;2022-12-07T02:14:15;100714.88;;;2.97;100.00
24486;BME280;13449;49.374;8.584;2022-12-07T02:20:07;100709.78;;;2.93;100.00
24486;BME280;13449;49.374;8.584;2022-12-07T02:23:20;100707.06;;;2.93;100.00
24486;BME280;13449;49.374;8.584;2022-12-07T02:30:54;100695.13;;;2.86;100.00
24486;BME280;13449;49.374;8.584;2022-12-07T02:33:29;100701.38;;;2.87;100.00
24486;BME280;13449;49.374;8.584;2022-12-07T02:35:59;100699.81;;;2.84;100.00
24486;BME280;13449;49.374;8.584;2022-12-07T02:41:08;100700.03;;;2.81;100.00
24486;BME280;13449;49.374;8.584;2022-12-07T02:43:50;100701.31;;;2.77;100.00
24486;BME280;13449;49.374;8.584;2022-12-07T02:46:25;100686.16;;;2.76;100.00
24486;BME280;13449;49.374;8.584;2022-12-07T02:48:54;100678.19;;;2.75;100.00
24486;BME280;13449;49.374;8.584;2022-12-07T02:51:22;100662.19;;;2.73;100.00
24486;BME280;13449;49.374;8.584;2022-12-07T02:53:51;100662.88;;;2.75;100.00
24486;BME280;13449;49.374;8.584;2022-12-07T02:56:30;100677.78;;;2.79;100.00
24486;BME280;13449;49.374;8.584;2022-12-07T03:04:58;100689.16;;;2.83;100.00
24486;BME280;13449;49.374;8.584;2022-12-07T03:07:39;100699.66;;;2.86;100.00
24486;BME280;13449;49.374;8.584;2022-12-07T03:12:48;100688.69;;;2.78;100.00
24486;BME280;13449;49.374;8.584;2022-12-07T03:15:28;100693.34;;;2.76;100.00
24486;BME280;13449;49.374;8.584;2022-12-07T03:17:56;100691.53;;;2.76;100.00
24486;BME280;13449;49.374;8.584;2022-12-07T03:20:25;100686.84;;;2.78;100.00
24486;BME280;13449;49.374;8.584;2022-12-07T03:22:53;100683.28;;;2.78;100.00
24486;BME280;13449;49.374;8.584;2022-12-07T03:25:23;100674.41;;;2.77;100.00
24486;BME280;13449;49.374;8.584;2022-12-07T03:28:01;100676.47;;;2.74;100.00
24486;BME280;13449;49.374;8.584;2022-12-07T03:31:22;100675.09;;;2.79;100.00
24486;BME280;13449;49.374;8.584;2022-12-07T03:33:53;100671.16;;;2.83;100.00
24486;BME280;13449;49.374;8.584;2022-12-07T03:36:40;100675.22;;;2.78;100.00
24486;BME280;13449;49.374;8.584;2022-12-07T03:39:33;100666.06;;;2.80;100.00
24486;BME280;13449;49.374;8.584;2022-12-07T03:42:02;100669.13;;;2.76;100.00
24486;BME280;13449;49.374;8.584;2022-12-07T03:44:32;100672.53;;;2.78;100.00
24486;BME280;13449;49.374;8.584;2022-12-07T03:47:13;100665.47;;;2.77;100.00
24486;BME280;13449;49.374;8.584;2022-12-07T03:50:10;100665.59;;;2.75;100.00
24486;BME280;13449;49.374;8.584;2022-12-07T03:52:47;100660.19;;;2.75;100.00
24486;BME280;13449;49.374;8.584;2022-12-07T03:55:31;100661.06;;;2.76;100.00
24486;BME280;13449;49.374;8.584;2022-12-07T03:58:02;100656.66;;;2.75;100.00
24486;BME280;13449;49.374;8.584;2022-12-07T04:00:30;100657.38;;;2.77;100.00
24486;BME280;13449;49.374;8.584;2022-12-07T04:02:57;100662.63;;;2.78;100.00
24486;BME280;13449;49.374;8.584;2022-12-07T04:05:25;100663.63;;;2.77;100.00
24486;BME280;13449;49.374;8.584;2022-12-07T04:07:52;100666.16;;;2.79;100.00
24486;BME280;13449;49.374;8.584;2022-12-07T04:10:21;100662.88;;;2.75;100.00
24486;BME280;13449;49.374;8.584;2022-12-07T04:12:47;100659.22;;;2.76;100.00
24486;BME280;13449;49.374;8.584;2022-12-07T04:15:17;100664.59;;;2.76;100.00
24486;BME280;13449;49.374;8.584;2022-12-07T04:17:46;100657.22;;;2.78;100.00
24486;BME280;13449;49.374;8.584;2022-12-07T04:20:12;100655.41;;;2.79;100.00
24486;BME280;13449;49.374;8.584;2022-12-07T04:22:39;100654.28;;;2.81;100.00
24486;BME280;13449;49.374;8.584;2022-12-07T04:25:05;100661.53;;;2.81;100.00
24486;BME280;13449;49.374;8.584;2022-12-07T04:27:32;100648.66;;;2.84;100.00
24486;BME280;13449;49.374;8.584;2022-12-07T04:29:59;100659.00;;;2.89;100.00
24486;BME280;13449;49.374;8.584;2022-12-07T04:32:26;100654.84;;;2.85;100.00
24486;BME280;13449;49.374;8.584;2022-12-07T04:34:55;100655.47;;;2.88;100.00
24486;BME280;13449;49.374;8.584;2022-12-07T04:37:23;100643.97;;;2.86;100.00
24486;BME280;13449;49.374;8.584;2022-12-07T04:39:51;100641.28;;;2.86;100.00
24486;BME280;13449;49.374;8.584;2022-12-07T04:42:23;100650.09;;;2.88;100.00
24486;BME280;13449;49.374;8.584;2022-12-07T04:44:49;100642.84;;;2.89;100.00
24486;BME280;13449;49.374;8.584;2022-12-07T04:47:17;100644.72;;;2.88;100.00
24486;BME280;13449;49.374;8.584;2022-12-07T04:49:43;100646.38;;;2.89;100.00
24486;BME280;13449;49.374;8.584;2022-12-07T04:52:10;100644.72;;;2.88;100.00
24486;BME280;13449;49.374;8.584;2022-12-07T04:54:36;100642.72;;;2.90;100.00
24486;BME280;13449;49.374;8.584;2022-12-07T04:57:05;100646.13;;;2.92;100.00
24486;BME280;13449;49.374;8.584;2022-12-07T04:59:31;100649.81;;;2.91;100.00
24486;BME280;13449;49.374;8.584;2022-12-07T05:01:58;100649.81;;;2.91;100.00
24486;BME280;13449;49.374;8.584;2022-12-07T05:04:27;100651.50;;;2.92;100.00
24486;BME280;13449;49.374;8.584;2022-12-07T05:06:56;100659.34;;;2.96;100.00
24486;BME280;13449;49.374;8.584;2022-12-07T05:09:23;100651.13;;;2.97;100.00
24486;BME280;13449;49.374;8.584;2022-12-07T05:11:49;100651.84;;;2.99;100.00
24486;BME280;13449;49.374;8.584;2022-12-07T05:14:20;100648.16;;;3.00;100.00
24486;BME280;13449;49.374;8.584;2022-12-07T05:16:48;100649.84;;;3.01;100.00
24486;BME280;13449;49.374;8.584;2022-12-07T05:19:16;100654.97;;;3.04;100.00
24486;BME280;13449;49.374;8.584;2022-12-07T05:21:45;100644.06;;;3.06;100.00
24486;BME280;13449;49.374;8.584;2022-12-07T05:24:13;100651.19;;;3.07;100.00
24486;BME280;13449;49.374;8.584;2022-12-07T05:26:40;100645.50;;;3.10;100.00
24486;BME280;13449;49.374;8.584;2022-12-07T05:29:07;100636.69;;;3.08;100.00
24486;BME280;13449;49.374;8.584;2022-12-07T05:31:36;100639.28;;;3.09;100.00
24486;BME280;13449;49.374;8.584;2022-12-07T05:34:02;100641.84;;;3.11;100.00
24486;BME280;13449;49.374;8.584;2022-12-07T05:36:29;100635.31;;;3.13;100.00
24486;BME280;13449;49.374;8.584;2022-12-07T05:38:58;100634.34;;;3.14;100.00
24486;BME280;13449;49.374;8.584;2022-12-07T05:41:27;100645.25;;;3.13;100.00
24486;BME280;13449;49.374;8.584;2022-12-07T05:44:13;100644.25;;;3.14;100.00
24486;BME280;13449;49.374;8.584;2022-12-07T05:46:41;100648.53;;;3.16;100.00
24486;BME280;13449;49.374;8.584;2022-12-07T05:49:08;100645.97;;;3.15;100.00
24486;BME280;13449;49.374;8.584;2022-12-07T05:51:34;100640.59;;;3.15;100.00
24486;BME280;13449;49.374;8.584;2022-12-07T05:54:01;100638.31;;;3.20;100.00
24486;BME280;13449;49.374;8.584;2022-12-07T05:56:27;100635.50;;;3.21;100.00
24486;BME280;13449;49.374;8.584;2022-12-07T05:58:54;100635.34;;;3.23;100.00
24486;BME280;13449;49.374;8.584;2022-12-07T06:01:39;100639.75;;;3.24;100.00
24486;BME280;13449;49.374;8.584;2022-12-07T06:04:08;100638.91;;;3.23;100.00
24486;BME280;13449;49.374;8.584;2022-12-07T06:06:34;100637.06;;;3.24;100.00
24486;BME280;13449;49.374;8.584;2022-12-07T06:09:02;100637.06;;;3.24;100.00
24486;BME280;13449;49.374;8.584;2022-12-07T06:11:28;100644.28;;;3.23;100.00
24486;BME280;13449;49.374;8.584;2022-12-07T06:14:14;100647.84;;;3.24;100.00
24486;BME280;13449;49.374;8.584;2022-12-07T06:16:40;100644.28;;;3.23;100.00
24486;BME280;13449;49.374;8.584;2022-12-07T06:19:07;100647.00;;;3.23;100.00
24486;BME280;13449;49.374;8.584;2022-12-07T06:21:33;100647.13;;;3.22;100.00
24486;BME280;13449;49.374;8.584;2022-12-07T06:24:00;100649.84;;;3.22;100.00
24486;BME280;13449;49.374;8.584;2022-12-07T06:26:30;100652.53;;;3.22;100.00
24486;BME280;13449;49.374;8.584;2022-12-07T06:28:56;100649.84;;;3.22;100.00
24486;BME280;13449;49.374;8.584;2022-12-07T06:31:23;100644.44;;;3.22;100.00
24486;BME280;13449;49.374;8.584;2022-12-07T06:33:50;100663.31;;;3.22;100.00
24486;BME280;13449;49.374;8.584;2022-12-07T06:36:16;100657.91;;;3.22;100.00
24486;BME280;13449;49.374;8.584;2022-12-07T06:38:49;100653.50;;;3.21;100.00
24486;BME280;13449;49.374;8.584;2022-12-07T06:41:15;100652.53;;;3.22;100.00
24486;BME280;13449;49.374;8.584;2022-12-07T06:43:44;100659.09;;;3.29;100.00
24486;BME280;13449;49.374;8.584;2022-12-07T06:46:11;100659.09;;;3.29;100.00
24486;BME280;13449;49.374;8.584;2022-12-07T06:48:37;100659.19;;;3.27;100.00
24486;BME280;13449;49.374;8.584;2022-12-07T06:51:05;100657.81;;;3.33;100.00
24486;BME280;13449;49.374;8.584;2022-12-07T06:53:32;100655.38;;;3.30;100.00
24486;BME280;13449;49.374;8.584;2022-12-07T06:55:58;100655.13;;;3.33;100.00
24486;BME280;13449;49.374;8.584;2022-12-07T06:58:25;100647.91;;;3.33;100.00
24486;BME280;13449;49.374;8.584;2022-12-07T07:00:52;100660.53;;;3.33;100.00
24486;BME280;13449;49.374;8.584;2022-12-07T07:03:18;100659.78;;;3.31;100.00
24486;BME280;13449;49.374;8.584;2022-12-07T07:05:45;100653.69;;;3.29;100.00
24486;BME280;13449;49.374;8.584;2022-12-07T07:08:14;100664.31;;;3.30;100.00
24486;BME280;13449;49.374;8.584;2022-12-07T07:10:49;100659.94;;;3.29;100.00
24486;BME280;13449;49.374;8.584;2022-12-07T07:13:16;100665.06;;;3.32;100.00
24486;BME280;13449;49.374;8.584;2022-12-07T07:15:43;100659.50;;;3.34;100.00
24486;BME280;13449;49.374;8.584;2022-12-07T07:18:09;100655.84;;;3.35;100.00
24486;BME280;13449;49.374;8.584;2022-12-07T07:20:36;100664.19;;;3.32;100.00
24486;BME280;13449;49.374;8.584;2022-12-07T07:23:03;100669.31;;;3.35;100.00
24486;BME280;13449;49.374;8.584;2022-12-07T07:25:29;100672.97;;;3.34;100.00
24486;BME280;13449;49.374;8.584;2022-12-07T07:27:55;100675.69;;;3.34;100.00
24486;BME280;13449;49.374;8.584;2022-12-07T07:30:22;100668.59;;;3.33;100.00
24486;BME280;13449;49.374;8.584;2022-12-07T07:32:56;100677.38;;;3.35;100.00
24486;BME280;13449;49.374;8.584;2022-12-07T07:35:26;100673.56;;;3.37;100.00
24486;BME280;13449;49.374;8.584;2022-12-07T07:37:55;100672.72;;;3.37;100.00
24486;BME280;13449;49.374;8.584;2022-12-07T07:40:22;100676.88;;;3.41;100.00
24486;BME280;13449;49.374;8.584;2022-12-07T07:42:49;100680.97;;;3.45;100.00
24486;BME280;13449;49.374;8.584;2022-12-07T07:45:21;100674.59;;;3.46;100.00
24486;BME280;13449;49.374;8.584;2022-12-07T07:47:51;100676.31;;;3.47;100.00
24486;BME280;13449;49.374;8.584;2022-12-07T07:50:18;100679.88;;;3.48;100.00
24486;BME280;13449;49.374;8.584;2022-12-07T07:52:45;100682.16;;;3.52;100.00
24486;BME280;13449;49.374;8.584;2022-12-07T07:55:17;100684.00;;;3.52;100.00
24486;BME280;13449;49.374;8.584;2022-12-07T07:57:44;100688.38;;;3.53;100.00
24486;BME280;13449;49.374;8.584;2022-12-07T08:00:19;100689.69;;;3.58;100.00
24486;BME280;13449;49.374;8.584;2022-12-07T08:02:46;100701.19;;;3.60;100.00
24486;BME280;13449;49.374;8.584;2022-12-07T08:05:13;100692.28;;;3.69;100.00
24486;BME280;13449;49.374;8.584;2022-12-07T08:07:40;100691.59;;;3.67;100.00
24486;BME280;13449;49.374;8.584;2022-12-07T08:10:10;100686.03;;;3.69;100.00
24486;BME280;13449;49.374;8.584;2022-12-07T08:12:38;100700.81;;;3.74;100.00
24486;BME280;13449;49.374;8.584;2022-12-07T08:15:27;100701.53;;;3.76;100.00
24486;BME280;13449;49.374;8.584;2022-12-07T08:17:54;100702.38;;;3.77;100.00
24486;BME280;13449;49.374;8.584;2022-12-07T08:20:21;100704.81;;;3.80;100.00
24486;BME280;13449;49.374;8.584;2022-12-07T08:22:47;100697.44;;;3.82;100.00
24486;BME280;13449;49.374;8.584;2022-12-07T08:25:14;100705.25;;;3.85;100.00
24486;BME280;13449;49.374;8.584;2022-12-07T08:27:40;100703.25;;;3.87;100.00
24486;BME280;13449;49.374;8.584;2022-12-07T08:30:07;100700.44;;;3.88;100.00
24486;BME280;13449;49.374;8.584;2022-12-07T08:32:36;100694.75;;;3.92;100.00
24486;BME280;13449;49.374;8.584;2022-12-07T08:35:05;100700.72;;;3.95;100.00
24486;BME280;13449;49.374;8.584;2022-12-07T08:37:34;100708.69;;;3.97;100.00
24486;BME280;13449;49.374;8.584;2022-12-07T08:40:02;100705.25;;;3.95;100.00
24486;BME280;13449;49.374;8.584;2022-12-07T08:42:29;100701.31;;;3.99;100.00
24486;BME280;13449;49.374;8.584;2022-12-07T08:45:06;100705.72;;;4.00;100.00
24486;BME280;13449;49.374;8.584;2022-12-07T08:47:35;100708.25;;;4.01;100.00
24486;BME280;13449;49.374;8.584;2022-12-07T08:50:05;100704.28;;;3.96;100.00
24486;BME280;13449;49.374;8.584;2022-12-07T08:52:38;100710.09;;;3.91;100.00
24486;BME280;13449;49.374;8.584;2022-12-07T08:55:06;100700.03;;;3.93;100.00
24486;BME280;13449;49.374;8.584;2022-12-07T08:57:34;100709.81;;;3.94;100.00
24486;BME280;13449;49.374;8.584;2022-12-07T09:00:03;100707.69;;;3.98;100.00
24486;BME280;13449;49.374;8.584;2022-12-07T09:02:31;100697.63;;;4.00;100.00
24486;BME280;13449;49.374;8.584;2022-12-07T09:05:00;100694.50;;;4.04;100.00
24486;BME280;13449;49.374;8.584;2022-12-07T09:07:27;100701.34;;;4.18;100.00
24486;BME280;13449;49.374;8.584;2022-12-07T09:09:56;100697.09;;;4.15;100.00
24486;BME280;13449;49.374;8.584;2022-12-07T09:12:22;100691.00;;;4.23;100.00
24486;BME280;13449;49.374;8.584;2022-12-07T09:14:49;100698.25;;;4.42;100.00
24486;BME280;13449;49.374;8.584;2022-12-07T09:17:15;100699.66;;;4.55;100.00
24486;BME280;13449;49.374;8.584;2022-12-07T09:19:42;100707.63;;;4.66;100.00
24486;BME280;13449;49.374;8.584;2022-12-07T09:22:12;100705.06;;;4.74;100.00
24486;BME280;13449;49.374;8.584;2022-12-07T09:24:38;100709.31;;;4.77;100.00
24486;BME280;13449;49.374;8.584;2022-12-07T09:27:05;100701.06;;;4.88;100.00
24486;BME280;13449;49.374;8.584;2022-12-07T09:29:31;100699.47;;;4.95;100.00
24486;BME280;13449;49.374;8.584;2022-12-07T09:31:58;100699.22;;;4.98;100.00
24486;BME280;13449;49.374;8.584;2022-12-07T09:34:25;100708.28;;;5.07;100.00
24486;BME280;13449;49.374;8.584;2022-12-07T09:36:52;100698.59;;;5.14;100.00
24486;BME280;13449;49.374;8.584;2022-12-07T09:39:19;100704.13;;;5.22;100.00
24486;BME280;13449;49.374;8.584;2022-12-07T09:41:45;100697.16;;;5.19;100.00
24486;BME280;13449;49.374;8.584;2022-12-07T09:44:23;100694.72;;;5.26;100.00
24486;BME280;13449;49.374;8.584;2022-12-07T09:46:51;100699.00;;;5.19;100.00
24486;BME280;13449;49.374;8.584;2022-12-07T09:49:21;100696.72;;;5.14;100.00
24486;BME280;13449;49.374;8.584;2022-12-07T09:54:35;100702.19;;;4.95;100.00
24486;BME280;13449;49.374;8.584;2022-12-07T09:57:03;100692.22;;;4.96;100.00
24486;BME280;13449;49.374;8.584;2022-12-07T09:59:32;100695.38;;;4.91;100.00
24486;BME280;13449;49.374;8.584;2022-12-07T10:04:48;100684.59;;;4.91;100.00
24486;BME280;13449;49.374;8.584;2022-12-07T10:07:14;100689.13;;;4.91;100.00
24486;BME280;13449;49.374;8.584;2022-12-07T10:09:43;100677.59;;;4.88;100.00
24486;BME280;13449;49.374;8.584;2022-12-07T10:12:11;100683.69;;;5.00;100.00
24486;BME280;13449;49.374;8.584;2022-12-07T10:14:51;100685.53;;;5.00;100.00
24486;BME280;13449;49.374;8.584;2022-12-07T10:17:39;100676.88;;;5.06;100.00
24486;BME280;13449;49.374;8.584;2022-12-07T10:20:18;100678.16;;;5.02;100.00
24486;BME280;13449;49.374;8.584;2022-12-07T10:23:01;100683.69;;;5.10;100.00
24486;BME280;13449;49.374;8.584;2022-12-07T10:25:34;100672.41;;;5.14;100.00
24486;BME280;13449;49.374;8.584;2022-12-07T10:30:29;100672.66;;;5.30;100.00
24486;BME280;13449;49.374;8.584;2022-12-07T10:32:56;100677.63;;;5.35;100.00
24486;BME280;13449;49.374;8.584;2022-12-07T10:35:29;100671.78;;;5.40;100.00
24486;BME280;13449;49.374;8.584;2022-12-07T10:37:58;100658.50;;;5.46;100.00
24486;BME280;13449;49.374;8.584;2022-12-07T10:40:34;100655.19;;;5.52;100.00
24486;BME280;13449;49.374;8.584;2022-12-07T10:51:53;100645.59;;;5.67;100.00
24486;BME280;13449;49.374;8.584;2022-12-07T11:00:08;100647.72;;;5.73;100.00
24486;BME280;13449;49.374;8.584;2022-12-07T11:03:23;100642.66;;;5.78;100.00
24486;BME280;13449;49.374;8.584;2022-12-07T11:08:38;100639.44;;;6.02;100.00
24486;BME280;13449;49.374;8.584;2022-12-07T11:13:54;100631.94;;;6.14;100.00
24486;BME280;13449;49.374;8.584;2022-12-07T11:22:01;100621.88;;;6.24;100.00
24486;BME280;13449;49.374;8.584;2022-12-07T11:30:08;100612.91;;;6.23;97.61
24486;BME280;13449;49.374;8.584;2022-12-07T11:35:46;100607.41;;;6.33;99.01
24486;BME280;13449;49.374;8.584;2022-12-07T11:38:19;100615.91;;;6.38;98.53
24486;BME280;13449;49.374;8.584;2022-12-07T11:40:58;100601.75;;;6.26;96.79
24486;BME280;13449;49.374;8.584;2022-12-07T11:44:07;100595.97;;;6.21;98.79
24486;BME280;13449;49.374;8.584;2022-12-07T11:52:14;100587.78;;;6.13;99.29
24486;BME280;13449;49.374;8.584;2022-12-07T11:54:44;100591.47;;;6.12;98.40
24486;BME280;13449;49.374;8.584;2022-12-07T11:57:28;100592.34;;;6.13;99.11
24486;BME280;13449;49.374;8.584;2022-12-07T12:00:08;100586.91;;;6.13;97.31
24486;BME280;13449;49.374;8.584;2022-12-07T12:05:17;100587.59;;;6.15;96.08
24486;BME280;13449;49.374;8.584;2022-12-07T12:07:48;100579.41;;;6.24;95.21
24486;BME280;13449;49.374;8.584;2022-12-07T12:10:47;100585.75;;;6.33;96.43
24486;BME280;13449;49.374;8.584;2022-12-07T12:19:42;100572.56;;;6.38;91.36
24486;BME280;13449;49.374;8.584;2022-12-07T12:22:14;100569.25;;;6.44;90.90
24486;BME280;13449;49.374;8.584;2022-12-07T12:24:43;100575.34;;;6.46;89.08
24486;BME280;13449;49.374;8.584;2022-12-07T12:27:23;100558.16;;;6.55;89.84
24486;BME280;13449;49.374;8.584;2022-12-07T12:29:58;100565.13;;;6.58;89.53
24486;BME280;13449;49.374;8.584;2022-12-07T12:32:42;100572.31;;;6.67;86.06
24486;BME280;13449;49.374;8.584;2022-12-07T12:35:28;100562.69;;;6.72;86.07
24486;BME280;13449;49.374;8.584;2022-12-07T12:40:58;100556.66;;;6.87;87.59
24486;BME280;13449;49.374;8.584;2022-12-07T12:43:46;100560.03;;;6.80;84.46
24486;BME280;13449;49.374;8.584;2022-12-07T12:51:46;100569.06;;;6.63;80.51
24486;BME280;13449;49.374;8.584;2022-12-07T12:57:17;100547.00;;;6.58;83.64
24486;BME280;13449;49.374;8.584;2022-12-07T13:15:54;100537.66;;;6.53;85.32
24486;BME280;13449;49.374;8.584;2022-12-07T13:20:49;100533.81;;;6.38;84.00
24486;BME280;13449;49.374;8.584;2022-12-07T13:26:03;100529.75;;;6.34;84.48
24486;BME280;13449;49.374;8.584;2022-12-07T13:28:35;100536.94;;;6.25;84.52
24486;BME280;13449;49.374;8.584;2022-12-07T13:31:15;100521.03;;;6.22;85.20
24486;BME280;13449;49.374;8.584;2022-12-07T13:33:45;100529.59;;;6.17;83.48
24486;BME280;13449;49.374;8.584;2022-12-07T13:38:51;100516.31;;;6.06;84.47
24486;BME280;13449;49.374;8.584;2022-12-07T13:41:20;100523.72;;;6.04;83.65
24486;BME280;13449;49.374;8.584;2022-12-07T13:43:53;100506.81;;;6.02;85.47
24486;BME280;13449;49.374;8.584;2022-12-07T13:46:31;100500.53;;;6.02;87.32
24486;BME280;13449;49.374;8.584;2022-12-07T13:49:00;100500.88;;;5.99;86.17
24486;BME280;13449;49.374;8.584;2022-12-07T13:51:28;100506.09;;;6.00;86.38
24486;BME280;13449;49.374;8.584;2022-12-07T13:54:07;100505.28;;;6.00;87.11
24486;BME280;13449;49.374;8.584;2022-12-07T13:56:38;100500.88;;;5.99;88.02
24486;BME280;13449;49.374;8.584;2022-12-07T13:59:14;100499.31;;;5.96;89.59
24486;BME280;13449;49.374;8.584;2022-12-07T14:01:44;100498.47;;;5.96;90.30
24486;BME280;13449;49.374;8.584;2022-12-07T14:06:53;100495.06;;;5.94;90.10
24486;BME280;13449;49.374;8.584;2022-12-07T14:09:21;100502.19;;;5.95;90.85
24486;BME280;13449;49.374;8.584;2022-12-07T14:11:53;100494.75;;;5.97;91.90
24486;BME280;13449;49.374;8.584;2022-12-07T14:14:22;100503.56;;;5.99;91.83
24486;BME280;13449;49.374;8.584;2022-12-07T14:16:59;100500.41;;;6.03;95.13
24486;BME280;13449;49.374;8.584;2022-12-07T14:25:32;100500.16;;;5.97;90.27
24486;BME280;13449;49.374;8.584;2022-12-07T14:28:00;100490.19;;;5.97;91.03
24486;BME280;13449;49.374;8.584;2022-12-07T14:30:31;100493.88;;;5.96;91.13
24486;BME280;13449;49.374;8.584;2022-12-07T14:33:00;100500.66;;;5.92;91.59
24486;BME280;13449;49.374;8.584;2022-12-07T14:35:28;100492.81;;;5.89;92.52
24486;BME280;13449;49.374;8.584;2022-12-07T14:37:58;100502.09;;;5.87;90.63
24486;BME280;13449;49.374;8.584;2022-12-07T14:40:27;100505.09;;;5.83;89.70
24486;BME280;13449;49.374;8.584;2022-12-07T14:43:01;100502.53;;;5.82;91.10
24486;BME280;13449;49.374;8.584;2022-12-07T14:45:31;100498.59;;;5.76;91.08
24486;BME280;13449;49.374;8.584;2022-12-07T14:48:02;100501.44;;;5.75;91.33
24486;BME280;13449;49.374;8.584;2022-12-07T14:50:51;100501.75;;;5.72;90.00
24486;BME280;13449;49.374;8.584;2022-12-07T14:53:41;100500.22;;;5.69;90.05
24486;BME280;13449;49.374;8.584;2022-12-07T14:56:18;100501.53;;;5.65;90.05
24486;BME280;13449;49.374;8.584;2022-12-07T14:58:45;100504.38;;;5.64;90.89
24486;BME280;13449;49.374;8.584;2022-12-07T15:01:14;100495.59;;;5.62;91.55
24486;BME280;13449;49.374;8.584;2022-12-07T15:03:42;100498.44;;;5.60;90.59
24486;BME280;13449;49.374;8.584;2022-12-07T15:06:13;100490.94;;;5.54;92.60
24486;BME280;13449;49.374;8.584;2022-12-07T15:08:40;100493.13;;;5.51;91.71
24486;BME280;13449;49.374;8.584;2022-12-07T15:11:12;100490.69;;;5.48;91.22
24486;BME280;13449;49.374;8.584;2022-12-07T15:13:39;100488.00;;;5.48;91.41
24486;BME280;13449;49.374;8.584;2022-12-07T15:16:24;100493.16;;;5.41;92.86
24486;BME280;13449;49.374;8.584;2022-12-07T15:18:53;100493.34;;;5.40;92.32
24486;BME280;13449;49.374;8.584;2022-12-07T15:21:40;100500.91;;;5.36;92.49